sensor_id;sensor_type;location;lat;lon;timestamp;P1;durP1;ratioP1;P2;durP2;ratioP2
6131;SDS011;3097;42.692;23.278;2023-12-22T00:00:17;102.73;;;43.70;;
6131;SDS011;3097;42.692;23.278;2023-12-22T00:02:43;96.90;;;39.87;;
6131;SDS011;3097;42.692;23.278;2023-12-22T00:05:08;109.07;;;43.90;;
6131;SDS011;3097;42.692;23.278;2023-12-22T00:07:34;86.43;;;37.27;;
6131;SDS011;3097;42.692;23.278;2023-12-22T00:09:59;108.17;;;43.37;;
6131;SDS011;3097;42.692;23.278;2023-12-22T00:12:25;99.63;;;42.50;;
6131;SDS011;3097;42.692;23.278;2023-12-22T00:14:50;89.47;;;37.83;;
6131;SDS011;3097;42.692;23.278;2023-12-22T00:17:16;89.07;;;37.17;;
6131;SDS011;3097;42.692;23.278;2023-12-22T00:19:41;64.77;;;29.10;;
6131;SDS011;3097;42.692;23.278;2023-12-22T00:22:07;72.73;;;31.90;;
6131;SDS011;3097;42.692;23.278;2023-12-22T00:24:32;99.07;;;40.70;;
6131;SDS011;3097;42.692;23.278;2023-12-22T00:26:58;73.23;;;32.07;;
6131;SDS011;3097;42.692;23.278;2023-12-22T00:29:24;78.30;;;35.33;;
6131;SDS011;3097;42.692;23.278;2023-12-22T00:31:50;64.43;;;29.20;;
6131;SDS011;3097;42.692;23.278;2023-12-22T00:34:15;60.90;;;28.03;;
6131;SDS011;3097;42.692;23.278;2023-12-22T00:36:41;67.17;;;31.17;;
6131;SDS011;3097;42.692;23.278;2023-12-22T00:39:09;69.67;;;31.13;;
6131;SDS011;3097;42.692;23.278;2023-12-22T00:41:34;60.37;;;28.37;;
6131;SDS011;3097;42.692;23.278;2023-12-22T00:44:00;68.17;;;31.30;;
6131;SDS011;3097;42.692;23.278;2023-12-22T00:46:26;65.17;;;27.37;;
6131;SDS011;3097;42.692;23.278;2023-12-22T00:48:51;54.67;;;23.03;;
6131;SDS011;3097;42.692;23.278;2023-12-22T00:51:17;39.93;;;21.07;;
6131;SDS011;3097;42.692;23.278;2023-12-22T00:53:42;45.47;;;21.57;;
6131;SDS011;3097;42.692;23.278;2023-12-22T00:56:08;38.03;;;20.03;;
6131;SDS011;3097;42.692;23.278;2023-12-22T00:58:33;46.70;;;21.37;;
6131;SDS011;3097;42.692;23.278;2023-12-22T01:00:59;51.00;;;22.43;;
6131;SDS011;3097;42.692;23.278;2023-12-22T01:03:24;53.83;;;24.10;;
6131;SDS011;3097;42.692;23.278;2023-12-22T01:05:50;50.53;;;24.23;;
6131;SDS011;3097;42.692;23.278;2023-12-22T01:08:15;55.83;;;25.80;;
6131;SDS011;3097;42.692;23.278;2023-12-22T01:10:41;56.90;;;26.27;;
6131;SDS011;3097;42.692;23.278;2023-12-22T01:13:06;55.10;;;24.50;;
6131;SDS011;3097;42.692;23.278;2023-12-22T01:15:32;55.47;;;24.53;;
6131;SDS011;3097;42.692;23.278;2023-12-22T01:17:57;53.93;;;25.17;;
6131;SDS011;3097;42.692;23.278;2023-12-22T01:20:23;65.50;;;26.73;;
6131;SDS011;3097;42.692;23.278;2023-12-22T01:22:49;48.20;;;24.13;;
6131;SDS011;3097;42.692;23.278;2023-12-22T01:25:14;50.57;;;23.37;;
6131;SDS011;3097;42.692;23.278;2023-12-22T01:27:40;44.77;;;22.20;;
6131;SDS011;3097;42.692;23.278;2023-12-22T01:30:05;43.83;;;20.00;;
6131;SDS011;3097;42.692;23.278;2023-12-22T01:32:32;40.07;;;20.30;;
6131;SDS011;3097;42.692;23.278;2023-12-22T01:35:00;41.03;;;20.23;;
6131;SDS011;3097;42.692;23.278;2023-12-22T01:37:35;42.27;;;20.33;;
6131;SDS011;3097;42.692;23.278;2023-12-22T01:40:02;40.50;;;19.70;;
6131;SDS011;3097;42.692;23.278;2023-12-22T01:42:28;34.03;;;19.07;;
6131;SDS011;3097;42.692;23.278;2023-12-22T01:44:54;34.33;;;17.73;;
6131;SDS011;3097;42.692;23.278;2023-12-22T01:47:19;34.87;;;18.00;;
6131;SDS011;3097;42.692;23.278;2023-12-22T01:49:46;38.43;;;18.53;;
6131;SDS011;3097;42.692;23.278;2023-12-22T01:52:14;38.03;;;18.93;;
6131;SDS011;3097;42.692;23.278;2023-12-22T01:54:41;41.20;;;17.87;;
6131;SDS011;3097;42.692;23.278;2023-12-22T01:57:06;35.93;;;18.33;;
6131;SDS011;3097;42.692;23.278;2023-12-22T01:59:32;36.47;;;19.47;;
6131;SDS011;3097;42.692;23.278;2023-12-22T02:02:02;37.40;;;18.63;;
6131;SDS011;3097;42.692;23.278;2023-12-22T02:04:29;34.20;;;17.90;;
6131;SDS011;3097;42.692;23.278;2023-12-22T02:06:56;35.20;;;18.50;;
6131;SDS011;3097;42.692;23.278;2023-12-22T02:09:26;33.90;;;17.47;;
6131;SDS011;3097;42.692;23.278;2023-12-22T02:11:51;40.00;;;18.50;;
6131;SDS011;3097;42.692;23.278;2023-12-22T02:14:17;36.30;;;18.53;;
6131;SDS011;3097;42.692;23.278;2023-12-22T02:16:46;37.83;;;18.63;;
6131;SDS011;3097;42.692;23.278;2023-12-22T02:22:05;35.60;;;17.00;;
6131;SDS011;3097;42.692;23.278;2023-12-22T02:24:31;32.40;;;17.33;;
6131;SDS011;3097;42.692;23.278;2023-12-22T02:27:15;33.77;;;16.40;;
6131;SDS011;3097;42.692;23.278;2023-12-22T02:30:06;30.83;;;16.77;;
6131;SDS011;3097;42.692;23.278;2023-12-22T02:32:52;32.10;;;15.73;;
6131;SDS011;3097;42.692;23.278;2023-12-22T02:35:25;30.30;;;15.87;;
6131;SDS011;3097;42.692;23.278;2023-12-22T02:37:51;28.93;;;14.47;;
6131;SDS011;3097;42.692;23.278;2023-12-22T02:40:19;27.53;;;14.90;;
6131;SDS011;3097;42.692;23.278;2023-12-22T02:42:46;30.70;;;14.83;;
6131;SDS011;3097;42.692;23.278;2023-12-22T02:45:13;34.17;;;16.07;;
6131;SDS011;3097;42.692;23.278;2023-12-22T02:47:40;28.03;;;15.23;;
6131;SDS011;3097;42.692;23.278;2023-12-22T02:50:06;30.00;;;15.40;;
6131;SDS011;3097;42.692;23.278;2023-12-22T02:52:32;29.77;;;14.70;;
6131;SDS011;3097;42.692;23.278;2023-12-22T02:54:58;30.33;;;15.80;;
6131;SDS011;3097;42.692;23.278;2023-12-22T02:57:24;28.43;;;14.43;;
6131;SDS011;3097;42.692;23.278;2023-12-22T02:59:49;30.10;;;16.07;;
6131;SDS011;3097;42.692;23.278;2023-12-22T03:02:15;32.73;;;16.27;;
6131;SDS011;3097;42.692;23.278;2023-12-22T03:04:40;33.40;;;16.33;;
6131;SDS011;3097;42.692;23.278;2023-12-22T03:07:06;29.00;;;15.40;;
6131;SDS011;3097;42.692;23.278;2023-12-22T03:09:32;32.33;;;16.20;;
6131;SDS011;3097;42.692;23.278;2023-12-22T03:11:59;34.93;;;17.93;;
6131;SDS011;3097;42.692;23.278;2023-12-22T03:14:30;31.13;;;16.87;;
6131;SDS011;3097;42.692;23.278;2023-12-22T03:16:58;32.57;;;17.60;;
6131;SDS011;3097;42.692;23.278;2023-12-22T03:19:31;35.97;;;18.73;;
6131;SDS011;3097;42.692;23.278;2023-12-22T03:21:57;39.67;;;18.77;;
6131;SDS011;3097;42.692;23.278;2023-12-22T03:24:23;40.37;;;18.87;;
6131;SDS011;3097;42.692;23.278;2023-12-22T03:26:50;39.50;;;19.27;;
6131;SDS011;3097;42.692;23.278;2023-12-22T03:29:16;40.93;;;20.73;;
6131;SDS011;3097;42.692;23.278;2023-12-22T03:31:42;43.80;;;21.43;;
6131;SDS011;3097;42.692;23.278;2023-12-22T03:34:07;41.07;;;20.10;;
6131;SDS011;3097;42.692;23.278;2023-12-22T03:36:33;39.73;;;20.20;;
6131;SDS011;3097;42.692;23.278;2023-12-22T03:38:59;41.57;;;21.47;;
6131;SDS011;3097;42.692;23.278;2023-12-22T03:41:24;50.10;;;23.00;;
6131;SDS011;3097;42.692;23.278;2023-12-22T03:43:50;45.70;;;21.00;;
6131;SDS011;3097;42.692;23.278;2023-12-22T03:46:15;43.73;;;20.93;;
6131;SDS011;3097;42.692;23.278;2023-12-22T03:48:41;37.77;;;19.00;;
6131;SDS011;3097;42.692;23.278;2023-12-22T03:51:06;37.50;;;19.87;;
6131;SDS011;3097;42.692;23.278;2023-12-22T03:53:32;40.07;;;18.47;;
6131;SDS011;3097;42.692;23.278;2023-12-22T03:55:57;36.80;;;18.40;;
6131;SDS011;3097;42.692;23.278;2023-12-22T03:58:23;37.23;;;18.87;;
6131;SDS011;3097;42.692;23.278;2023-12-22T04:00:49;35.93;;;18.93;;
6131;SDS011;3097;42.692;23.278;2023-12-22T04:03:15;40.53;;;17.93;;
6131;SDS011;3097;42.692;23.278;2023-12-22T04:05:40;37.23;;;18.20;;
6131;SDS011;3097;42.692;23.278;2023-12-22T04:08:06;39.17;;;19.40;;
6131;SDS011;3097;42.692;23.278;2023-12-22T04:10:31;38.07;;;18.67;;
6131;SDS011;3097;42.692;23.278;2023-12-22T04:12:57;37.87;;;18.93;;
6131;SDS011;3097;42.692;23.278;2023-12-22T04:15:23;38.53;;;19.07;;
6131;SDS011;3097;42.692;23.278;2023-12-22T04:17:48;40.90;;;19.43;;
6131;SDS011;3097;42.692;23.278;2023-12-22T04:20:15;37.43;;;19.30;;
6131;SDS011;3097;42.692;23.278;2023-12-22T04:22:40;35.80;;;19.50;;
6131;SDS011;3097;42.692;23.278;2023-12-22T04:25:06;39.63;;;18.67;;
6131;SDS011;3097;42.692;23.278;2023-12-22T04:27:33;40.93;;;20.17;;
6131;SDS011;3097;42.692;23.278;2023-12-22T04:29:59;41.97;;;19.40;;
6131;SDS011;3097;42.692;23.278;2023-12-22T04:32:25;40.53;;;18.97;;
6131;SDS011;3097;42.692;23.278;2023-12-22T04:34:50;36.07;;;19.27;;
6131;SDS011;3097;42.692;23.278;2023-12-22T04:37:16;44.73;;;20.40;;
6131;SDS011;3097;42.692;23.278;2023-12-22T04:39:41;35.17;;;18.53;;
6131;SDS011;3097;42.692;23.278;2023-12-22T04:42:07;38.17;;;20.23;;
6131;SDS011;3097;42.692;23.278;2023-12-22T04:44:32;39.30;;;19.97;;
6131;SDS011;3097;42.692;23.278;2023-12-22T04:46:58;39.90;;;21.13;;
6131;SDS011;3097;42.692;23.278;2023-12-22T04:49:23;42.37;;;21.83;;
6131;SDS011;3097;42.692;23.278;2023-12-22T04:51:49;40.60;;;21.00;;
6131;SDS011;3097;42.692;23.278;2023-12-22T04:54:14;46.33;;;23.30;;
6131;SDS011;3097;42.692;23.278;2023-12-22T04:56:40;51.43;;;23.20;;
6131;SDS011;3097;42.692;23.278;2023-12-22T04:59:05;45.33;;;22.90;;
6131;SDS011;3097;42.692;23.278;2023-12-22T05:01:31;40.00;;;20.33;;
6131;SDS011;3097;42.692;23.278;2023-12-22T05:03:57;43.23;;;21.40;;
6131;SDS011;3097;42.692;23.278;2023-12-22T05:06:23;41.87;;;20.50;;
6131;SDS011;3097;42.692;23.278;2023-12-22T05:08:48;39.60;;;20.77;;
6131;SDS011;3097;42.692;23.278;2023-12-22T05:11:14;37.40;;;19.17;;
6131;SDS011;3097;42.692;23.278;2023-12-22T05:13:41;34.43;;;17.20;;
6131;SDS011;3097;42.692;23.278;2023-12-22T05:16:08;33.83;;;17.90;;
6131;SDS011;3097;42.692;23.278;2023-12-22T05:18:33;31.27;;;17.20;;
6131;SDS011;3097;42.692;23.278;2023-12-22T05:20:59;39.97;;;19.40;;
6131;SDS011;3097;42.692;23.278;2023-12-22T05:23:24;35.80;;;17.60;;
6131;SDS011;3097;42.692;23.278;2023-12-22T05:25:50;17.50;;;10.17;;
6131;SDS011;3097;42.692;23.278;2023-12-22T05:28:16;29.97;;;15.57;;
6131;SDS011;3097;42.692;23.278;2023-12-22T05:30:42;32.00;;;15.53;;
6131;SDS011;3097;42.692;23.278;2023-12-22T05:33:07;27.00;;;14.90;;
6131;SDS011;3097;42.692;23.278;2023-12-22T05:35:33;27.27;;;14.97;;
6131;SDS011;3097;42.692;23.278;2023-12-22T05:38:01;29.10;;;15.67;;
6131;SDS011;3097;42.692;23.278;2023-12-22T05:40:26;27.93;;;15.33;;
6131;SDS011;3097;42.692;23.278;2023-12-22T05:42:52;30.57;;;16.97;;
6131;SDS011;3097;42.692;23.278;2023-12-22T05:45:17;32.27;;;16.77;;
6131;SDS011;3097;42.692;23.278;2023-12-22T05:47:46;31.27;;;17.37;;
6131;SDS011;3097;42.692;23.278;2023-12-22T05:50:12;31.40;;;17.67;;
6131;SDS011;3097;42.692;23.278;2023-12-22T05:52:37;35.23;;;18.47;;
6131;SDS011;3097;42.692;23.278;2023-12-22T05:55:03;29.03;;;16.63;;
6131;SDS011;3097;42.692;23.278;2023-12-22T05:57:29;23.90;;;13.90;;
6131;SDS011;3097;42.692;23.278;2023-12-22T05:59:54;27.57;;;15.40;;
6131;SDS011;3097;42.692;23.278;2023-12-22T06:02:20;27.97;;;15.90;;
6131;SDS011;3097;42.692;23.278;2023-12-22T06:04:45;25.57;;;14.37;;
6131;SDS011;3097;42.692;23.278;2023-12-22T06:07:11;42.80;;;17.53;;
6131;SDS011;3097;42.692;23.278;2023-12-22T06:09:36;32.40;;;16.27;;
6131;SDS011;3097;42.692;23.278;2023-12-22T06:12:02;24.90;;;14.27;;
6131;SDS011;3097;42.692;23.278;2023-12-22T06:14:28;25.60;;;14.00;;
6131;SDS011;3097;42.692;23.278;2023-12-22T06:16:53;22.67;;;12.73;;
6131;SDS011;3097;42.692;23.278;2023-12-22T06:19:21;25.63;;;14.33;;
6131;SDS011;3097;42.692;23.278;2023-12-22T06:21:49;27.67;;;13.80;;
6131;SDS011;3097;42.692;23.278;2023-12-22T06:24:14;26.87;;;14.47;;
6131;SDS011;3097;42.692;23.278;2023-12-22T06:26:41;19.30;;;11.73;;
6131;SDS011;3097;42.692;23.278;2023-12-22T06:29:07;23.93;;;13.03;;
6131;SDS011;3097;42.692;23.278;2023-12-22T06:31:32;22.70;;;13.87;;
6131;SDS011;3097;42.692;23.278;2023-12-22T06:33:58;27.83;;;15.00;;
6131;SDS011;3097;42.692;23.278;2023-12-22T06:36:27;26.20;;;15.10;;
6131;SDS011;3097;42.692;23.278;2023-12-22T06:38:53;37.07;;;16.83;;
6131;SDS011;3097;42.692;23.278;2023-12-22T06:43:49;27.90;;;14.97;;
6131;SDS011;3097;42.692;23.278;2023-12-22T06:46:16;25.57;;;14.97;;
6131;SDS011;3097;42.692;23.278;2023-12-22T06:48:45;25.43;;;15.63;;
6131;SDS011;3097;42.692;23.278;2023-12-22T06:51:17;29.73;;;16.10;;
6131;SDS011;3097;42.692;23.278;2023-12-22T06:53:44;28.87;;;15.30;;
6131;SDS011;3097;42.692;23.278;2023-12-22T06:56:20;31.10;;;15.23;;
6131;SDS011;3097;42.692;23.278;2023-12-22T06:58:48;32.83;;;15.53;;
6131;SDS011;3097;42.692;23.278;2023-12-22T07:01:33;28.87;;;14.77;;
6131;SDS011;3097;42.692;23.278;2023-12-22T07:04:00;25.93;;;13.97;;
6131;SDS011;3097;42.692;23.278;2023-12-22T07:06:28;28.97;;;14.47;;
6131;SDS011;3097;42.692;23.278;2023-12-22T07:08:57;26.27;;;14.83;;
6131;SDS011;3097;42.692;23.278;2023-12-22T07:11:22;28.93;;;15.17;;
6131;SDS011;3097;42.692;23.278;2023-12-22T07:13:48;27.83;;;15.33;;
6131;SDS011;3097;42.692;23.278;2023-12-22T07:16:13;34.23;;;16.20;;
6131;SDS011;3097;42.692;23.278;2023-12-22T07:18:40;31.80;;;17.10;;
6131;SDS011;3097;42.692;23.278;2023-12-22T07:21:05;30.70;;;17.03;;
6131;SDS011;3097;42.692;23.278;2023-12-22T07:23:31;36.23;;;17.27;;
6131;SDS011;3097;42.692;23.278;2023-12-22T07:25:57;27.20;;;14.73;;
6131;SDS011;3097;42.692;23.278;2023-12-22T07:28:23;27.30;;;14.70;;
6131;SDS011;3097;42.692;23.278;2023-12-22T07:30:48;27.40;;;14.03;;
6131;SDS011;3097;42.692;23.278;2023-12-22T07:33:14;31.90;;;14.83;;
6131;SDS011;3097;42.692;23.278;2023-12-22T07:35:40;29.60;;;15.47;;
6131;SDS011;3097;42.692;23.278;2023-12-22T07:38:05;29.93;;;16.33;;
6131;SDS011;3097;42.692;23.278;2023-12-22T07:40:31;33.20;;;16.67;;
6131;SDS011;3097;42.692;23.278;2023-12-22T07:42:56;29.57;;;16.00;;
6131;SDS011;3097;42.692;23.278;2023-12-22T07:45:22;30.80;;;17.57;;
6131;SDS011;3097;42.692;23.278;2023-12-22T07:47:48;30.27;;;15.30;;
6131;SDS011;3097;42.692;23.278;2023-12-22T07:50:14;79.43;;;33.60;;
6131;SDS011;3097;42.692;23.278;2023-12-22T07:52:40;31.00;;;17.33;;
6131;SDS011;3097;42.692;23.278;2023-12-22T07:55:06;26.87;;;16.47;;
6131;SDS011;3097;42.692;23.278;2023-12-22T07:57:37;32.10;;;16.97;;
6131;SDS011;3097;42.692;23.278;2023-12-22T08:00:06;28.70;;;16.83;;
6131;SDS011;3097;42.692;23.278;2023-12-22T08:02:32;23.77;;;13.87;;
6131;SDS011;3097;42.692;23.278;2023-12-22T08:04:57;26.83;;;15.77;;
6131;SDS011;3097;42.692;23.278;2023-12-22T08:07:23;33.53;;;18.13;;
6131;SDS011;3097;42.692;23.278;2023-12-22T08:09:48;32.20;;;16.90;;
6131;SDS011;3097;42.692;23.278;2023-12-22T08:12:14;36.03;;;19.70;;
6131;SDS011;3097;42.692;23.278;2023-12-22T08:14:40;32.37;;;18.03;;
6131;SDS011;3097;42.692;23.278;2023-12-22T08:17:06;35.77;;;19.33;;
6131;SDS011;3097;42.692;23.278;2023-12-22T08:19:31;35.00;;;19.23;;
6131;SDS011;3097;42.692;23.278;2023-12-22T08:21:57;39.67;;;18.57;;
6131;SDS011;3097;42.692;23.278;2023-12-22T08:24:23;39.33;;;18.97;;
6131;SDS011;3097;42.692;23.278;2023-12-22T08:26:49;34.37;;;17.87;;
6131;SDS011;3097;42.692;23.278;2023-12-22T08:29:15;30.47;;;17.47;;
6131;SDS011;3097;42.692;23.278;2023-12-22T08:31:50;31.00;;;17.90;;
6131;SDS011;3097;42.692;23.278;2023-12-22T08:34:16;31.67;;;16.87;;
6131;SDS011;3097;42.692;23.278;2023-12-22T08:36:42;28.97;;;17.67;;
6131;SDS011;3097;42.692;23.278;2023-12-22T08:39:08;30.20;;;17.47;;
6131;SDS011;3097;42.692;23.278;2023-12-22T08:41:33;32.90;;;18.80;;
6131;SDS011;3097;42.692;23.278;2023-12-22T08:44:02;36.67;;;18.93;;
6131;SDS011;3097;42.692;23.278;2023-12-22T08:46:28;31.07;;;18.93;;
6131;SDS011;3097;42.692;23.278;2023-12-22T08:48:56;32.13;;;18.00;;
6131;SDS011;3097;42.692;23.278;2023-12-22T08:51:24;30.33;;;17.77;;
6131;SDS011;3097;42.692;23.278;2023-12-22T08:53:50;34.33;;;18.33;;
6131;SDS011;3097;42.692;23.278;2023-12-22T08:56:17;37.00;;;18.13;;
6131;SDS011;3097;42.692;23.278;2023-12-22T08:58:43;32.63;;;19.13;;
6131;SDS011;3097;42.692;23.278;2023-12-22T09:01:18;36.57;;;18.63;;
6131;SDS011;3097;42.692;23.278;2023-12-22T09:03:44;49.00;;;23.00;;
6131;SDS011;3097;42.692;23.278;2023-12-22T09:06:16;40.60;;;21.30;;
6131;SDS011;3097;42.692;23.278;2023-12-22T09:08:42;41.27;;;21.23;;
6131;SDS011;3097;42.692;23.278;2023-12-22T09:11:10;39.67;;;20.97;;
6131;SDS011;3097;42.692;23.278;2023-12-22T09:13:37;39.20;;;21.30;;
6131;SDS011;3097;42.692;23.278;2023-12-22T09:16:03;34.90;;;21.47;;
6131;SDS011;3097;42.692;23.278;2023-12-22T09:18:28;37.50;;;20.63;;
6131;SDS011;3097;42.692;23.278;2023-12-22T09:20:54;42.27;;;21.77;;
6131;SDS011;3097;42.692;23.278;2023-12-22T09:23:20;45.93;;;23.87;;
6131;SDS011;3097;42.692;23.278;2023-12-22T09:25:46;55.83;;;28.23;;
6131;SDS011;3097;42.692;23.278;2023-12-22T09:28:12;56.00;;;30.20;;
6131;SDS011;3097;42.692;23.278;2023-12-22T09:30:37;61.10;;;32.17;;
6131;SDS011;3097;42.692;23.278;2023-12-22T09:33:03;62.00;;;31.67;;
6131;SDS011;3097;42.692;23.278;2023-12-22T09:35:29;57.67;;;29.20;;
6131;SDS011;3097;42.692;23.278;2023-12-22T09:37:55;56.67;;;29.10;;
6131;SDS011;3097;42.692;23.278;2023-12-22T09:40:21;56.73;;;30.73;;
6131;SDS011;3097;42.692;23.278;2023-12-22T09:42:47;71.17;;;36.20;;
6131;SDS011;3097;42.692;23.278;2023-12-22T09:45:16;72.30;;;36.43;;
6131;SDS011;3097;42.692;23.278;2023-12-22T09:47:45;66.80;;;36.90;;
6131;SDS011;3097;42.692;23.278;2023-12-22T09:50:11;76.87;;;40.30;;
6131;SDS011;3097;42.692;23.278;2023-12-22T09:52:39;67.97;;;37.67;;
6131;SDS011;3097;42.692;23.278;2023-12-22T09:55:09;66.63;;;35.77;;
6131;SDS011;3097;42.692;23.278;2023-12-22T09:57:35;59.77;;;32.30;;
6131;SDS011;3097;42.692;23.278;2023-12-22T10:00:05;54.17;;;28.00;;
6131;SDS011;3097;42.692;23.278;2023-12-22T10:02:33;58.67;;;29.60;;
6131;SDS011;3097;42.692;23.278;2023-12-22T10:05:00;60.90;;;29.80;;
6131;SDS011;3097;42.692;23.278;2023-12-22T10:07:26;58.20;;;31.70;;
6131;SDS011;3097;42.692;23.278;2023-12-22T10:09:52;55.70;;;30.53;;
6131;SDS011;3097;42.692;23.278;2023-12-22T10:12:20;53.77;;;29.07;;
6131;SDS011;3097;42.692;23.278;2023-12-22T10:14:47;39.03;;;23.50;;
6131;SDS011;3097;42.692;23.278;2023-12-22T10:17:15;29.67;;;16.60;;
6131;SDS011;3097;42.692;23.278;2023-12-22T10:19:42;22.27;;;13.73;;
6131;SDS011;3097;42.692;23.278;2023-12-22T10:22:07;27.13;;;15.97;;
6131;SDS011;3097;42.692;23.278;2023-12-22T10:24:40;36.73;;;21.03;;
6131;SDS011;3097;42.692;23.278;2023-12-22T10:27:12;42.67;;;23.50;;
6131;SDS011;3097;42.692;23.278;2023-12-22T10:29:39;37.50;;;20.53;;
6131;SDS011;3097;42.692;23.278;2023-12-22T10:32:06;29.60;;;17.50;;
6131;SDS011;3097;42.692;23.278;2023-12-22T10:34:33;30.47;;;18.50;;
6131;SDS011;3097;42.692;23.278;2023-12-22T10:36:59;23.20;;;13.87;;
6131;SDS011;3097;42.692;23.278;2023-12-22T10:39:28;18.33;;;11.97;;
6131;SDS011;3097;42.692;23.278;2023-12-22T10:41:58;15.20;;;9.50;;
6131;SDS011;3097;42.692;23.278;2023-12-22T10:44:24;13.73;;;9.17;;
6131;SDS011;3097;42.692;23.278;2023-12-22T10:46:54;13.03;;;9.07;;
6131;SDS011;3097;42.692;23.278;2023-12-22T10:49:21;13.07;;;9.10;;
6131;SDS011;3097;42.692;23.278;2023-12-22T10:51:47;12.83;;;9.27;;
6131;SDS011;3097;42.692;23.278;2023-12-22T10:54:12;18.47;;;12.20;;
6131;SDS011;3097;42.692;23.278;2023-12-22T10:56:38;26.43;;;14.50;;
6131;SDS011;3097;42.692;23.278;2023-12-22T10:59:05;31.93;;;18.03;;
6131;SDS011;3097;42.692;23.278;2023-12-22T11:01:31;52.53;;;27.90;;
6131;SDS011;3097;42.692;23.278;2023-12-22T11:04:01;36.13;;;20.07;;
6131;SDS011;3097;42.692;23.278;2023-12-22T11:06:34;22.17;;;13.00;;
6131;SDS011;3097;42.692;23.278;2023-12-22T11:09:07;14.57;;;9.03;;
6131;SDS011;3097;42.692;23.278;2023-12-22T11:11:37;16.50;;;9.97;;
6131;SDS011;3097;42.692;23.278;2023-12-22T11:14:07;9.20;;;6.10;;
6131;SDS011;3097;42.692;23.278;2023-12-22T11:16:34;4.67;;;4.17;;
6131;SDS011;3097;42.692;23.278;2023-12-22T11:19:02;5.73;;;5.10;;
6131;SDS011;3097;42.692;23.278;2023-12-22T11:21:29;5.10;;;4.67;;
6131;SDS011;3097;42.692;23.278;2023-12-22T11:23:56;6.30;;;4.70;;
6131;SDS011;3097;42.692;23.278;2023-12-22T11:26:24;5.10;;;4.60;;
6131;SDS011;3097;42.692;23.278;2023-12-22T11:28:50;6.47;;;5.10;;
6131;SDS011;3097;42.692;23.278;2023-12-22T11:31:17;12.40;;;7.90;;
6131;SDS011;3097;42.692;23.278;2023-12-22T11:33:47;6.50;;;5.50;;
6131;SDS011;3097;42.692;23.278;2023-12-22T11:36:13;7.37;;;6.40;;
6131;SDS011;3097;42.692;23.278;2023-12-22T11:38:41;8.53;;;6.07;;
6131;SDS011;3097;42.692;23.278;2023-12-22T11:41:13;13.17;;;7.10;;
6131;SDS011;3097;42.692;23.278;2023-12-22T11:43:50;13.40;;;7.10;;
6131;SDS011;3097;42.692;23.278;2023-12-22T11:46:18;8.77;;;5.90;;
6131;SDS011;3097;42.692;23.278;2023-12-22T11:48:51;11.67;;;7.30;;
6131;SDS011;3097;42.692;23.278;2023-12-22T11:51:17;11.47;;;7.40;;
6131;SDS011;3097;42.692;23.278;2023-12-22T11:53:44;21.47;;;14.40;;
6131;SDS011;3097;42.692;23.278;2023-12-22T11:56:11;31.90;;;20.33;;
6131;SDS011;3097;42.692;23.278;2023-12-22T11:58:44;19.70;;;12.90;;
6131;SDS011;3097;42.692;23.278;2023-12-22T12:01:24;14.90;;;10.37;;
6131;SDS011;3097;42.692;23.278;2023-12-22T12:03:51;28.80;;;16.57;;
6131;SDS011;3097;42.692;23.278;2023-12-22T12:08:55;22.27;;;12.97;;
6131;SDS011;3097;42.692;23.278;2023-12-22T12:14:16;8.73;;;5.90;;
6131;SDS011;3097;42.692;23.278;2023-12-22T12:16:55;13.43;;;7.97;;
6131;SDS011;3097;42.692;23.278;2023-12-22T12:19:34;13.67;;;9.60;;
6131;SDS011;3097;42.692;23.278;2023-12-22T12:22:00;14.37;;;10.30;;
6131;SDS011;3097;42.692;23.278;2023-12-22T12:24:26;5.00;;;4.37;;
6131;SDS011;3097;42.692;23.278;2023-12-22T12:26:52;2.20;;;2.10;;
6131;SDS011;3097;42.692;23.278;2023-12-22T12:29:17;4.03;;;3.63;;
6131;SDS011;3097;42.692;23.278;2023-12-22T12:31:45;3.43;;;2.63;;
6131;SDS011;3097;42.692;23.278;2023-12-22T12:34:11;20.70;;;13.07;;
6131;SDS011;3097;42.692;23.278;2023-12-22T12:36:39;21.27;;;14.73;;
6131;SDS011;3097;42.692;23.278;2023-12-22T12:39:06;3.90;;;3.53;;
6131;SDS011;3097;42.692;23.278;2023-12-22T12:41:36;2.70;;;2.50;;
6131;SDS011;3097;42.692;23.278;2023-12-22T12:44:06;2.77;;;2.50;;
6131;SDS011;3097;42.692;23.278;2023-12-22T12:46:36;3.70;;;3.30;;
6131;SDS011;3097;42.692;23.278;2023-12-22T12:49:09;3.00;;;2.70;;
6131;SDS011;3097;42.692;23.278;2023-12-22T12:51:42;1.60;;;1.50;;
6131;SDS011;3097;42.692;23.278;2023-12-22T12:54:09;11.40;;;8.13;;
6131;SDS011;3097;42.692;23.278;2023-12-22T12:56:42;12.30;;;10.20;;
6131;SDS011;3097;42.692;23.278;2023-12-22T12:59:15;13.57;;;10.30;;
6131;SDS011;3097;42.692;23.278;2023-12-22T13:01:43;17.53;;;11.50;;
6131;SDS011;3097;42.692;23.278;2023-12-22T13:04:11;20.40;;;13.27;;
6131;SDS011;3097;42.692;23.278;2023-12-22T13:06:47;19.83;;;12.13;;
6131;SDS011;3097;42.692;23.278;2023-12-22T13:09:13;11.53;;;8.67;;
6131;SDS011;3097;42.692;23.278;2023-12-22T13:11:42;12.50;;;9.23;;
6131;SDS011;3097;42.692;23.278;2023-12-22T13:14:09;14.23;;;9.57;;
6131;SDS011;3097;42.692;23.278;2023-12-22T13:16:35;20.63;;;13.70;;
6131;SDS011;3097;42.692;23.278;2023-12-22T13:19:02;17.63;;;10.67;;
6131;SDS011;3097;42.692;23.278;2023-12-22T13:21:28;21.93;;;12.60;;
6131;SDS011;3097;42.692;23.278;2023-12-22T13:24:10;16.70;;;9.17;;
6131;SDS011;3097;42.692;23.278;2023-12-22T13:26:41;15.27;;;8.67;;
6131;SDS011;3097;42.692;23.278;2023-12-22T13:29:07;12.93;;;8.40;;
6131;SDS011;3097;42.692;23.278;2023-12-22T13:31:35;19.33;;;11.30;;
6131;SDS011;3097;42.692;23.278;2023-12-22T13:34:03;15.13;;;10.07;;
6131;SDS011;3097;42.692;23.278;2023-12-22T13:36:37;18.83;;;12.77;;
6131;SDS011;3097;42.692;23.278;2023-12-22T13:39:06;21.63;;;13.57;;
6131;SDS011;3097;42.692;23.278;2023-12-22T13:41:35;19.40;;;12.10;;
6131;SDS011;3097;42.692;23.278;2023-12-22T13:44:05;18.53;;;11.90;;
6131;SDS011;3097;42.692;23.278;2023-12-22T13:46:31;28.17;;;14.67;;
6131;SDS011;3097;42.692;23.278;2023-12-22T13:48:58;27.30;;;14.67;;
6131;SDS011;3097;42.692;23.278;2023-12-22T13:51:24;28.90;;;16.93;;
6131;SDS011;3097;42.692;23.278;2023-12-22T13:53:50;26.27;;;14.73;;
6131;SDS011;3097;42.692;23.278;2023-12-22T13:56:15;35.80;;;17.83;;
6131;SDS011;3097;42.692;23.278;2023-12-22T13:58:47;31.60;;;17.60;;
6131;SDS011;3097;42.692;23.278;2023-12-22T14:01:16;12.80;;;8.77;;
6131;SDS011;3097;42.692;23.278;2023-12-22T14:03:42;17.77;;;11.00;;
6131;SDS011;3097;42.692;23.278;2023-12-22T14:06:09;22.60;;;12.90;;
6131;SDS011;3097;42.692;23.278;2023-12-22T14:08:38;21.93;;;13.70;;
6131;SDS011;3097;42.692;23.278;2023-12-22T14:11:05;12.20;;;7.10;;
6131;SDS011;3097;42.692;23.278;2023-12-22T14:13:31;13.90;;;9.63;;
6131;SDS011;3097;42.692;23.278;2023-12-22T14:15:57;17.60;;;10.00;;
6131;SDS011;3097;42.692;23.278;2023-12-22T14:18:22;22.03;;;12.97;;
6131;SDS011;3097;42.692;23.278;2023-12-22T14:20:48;17.53;;;10.70;;
6131;SDS011;3097;42.692;23.278;2023-12-22T14:23:13;16.07;;;10.37;;
6131;SDS011;3097;42.692;23.278;2023-12-22T14:25:42;41.30;;;20.20;;
6131;SDS011;3097;42.692;23.278;2023-12-22T14:28:08;18.10;;;11.37;;
6131;SDS011;3097;42.692;23.278;2023-12-22T14:30:33;17.17;;;11.47;;
6131;SDS011;3097;42.692;23.278;2023-12-22T14:33:00;24.43;;;15.03;;
6131;SDS011;3097;42.692;23.278;2023-12-22T14:35:26;27.87;;;18.03;;
6131;SDS011;3097;42.692;23.278;2023-12-22T14:37:51;17.53;;;11.23;;
6131;SDS011;3097;42.692;23.278;2023-12-22T14:40:17;6.40;;;4.87;;
6131;SDS011;3097;42.692;23.278;2023-12-22T14:42:43;5.03;;;4.43;;
6131;SDS011;3097;42.692;23.278;2023-12-22T14:45:09;13.33;;;8.80;;
6131;SDS011;3097;42.692;23.278;2023-12-22T14:47:35;20.33;;;12.80;;